Terminal Aerodrome Forecast
Issued by NWS

Home | Current Version | Previous Version | Text Only | Print | Product List | Glossary On
Versions: 1 2 3 4 5 6 7 8 9 10 11 12 13 14 15
000
FTUS41 KBTV 200939 AAB
TAFMSS
TAF AMD
KMSS 200939Z 2010/2106 29007KT P6SM -SHRA SCT020 OVC040
      TEMPO 2010/2011 5SM SHRA BKN015 OVC030
     FM201100 29010KT P6SM VCSH OVC015
     FM201400 29009KT P6SM BKN025
     FM201700 30008KT P6SM SCT080=

USA.gov is the U.S. government's official web portal to all federal, state and local government web resources and services.